Wolfe, West Virginia
Current Conditions -  °F | °C
As of 4:08 AM on Thursday 23 Oct 2014 (Local Time) from KBLF Reporting Station
Overcast Overcast  
Wind Chill:   Ceiling: 900
Heat Index:   Visibility: 10mi
Dew Point:   Wind: 6mph
Humidity: 82%   Direction: 320°NW
Pressure: 30.14"   Gusts: NA
Location:  37.31°N, 81.33°W
Report Text: KBLF 230808Z AUTO 32005KT 10SM BKN009 OVC015 06/03 A3014 RMK AO2 CIG 004V011 T00610033
Loading
Personal Weather Stations






























Interactive Weather Map
Tropical Storm Tracking
New forecast layout! Learn more

10-Day Weather Forecast

Advertisements
Track Severe Weather on mobile